createdAt,value
2019-01-23T00:01:43.568Z,42.10
2019-01-23T00:06:28.453Z,42.57
2019-01-23T00:11:13.062Z,40.77
2019-01-23T00:15:58.021Z,40.13
2019-01-23T00:20:42.860Z,41.70
2019-01-23T00:25:27.690Z,36.53
2019-01-23T00:30:12.434Z,40.37
2019-01-23T00:34:57.533Z,39.03
2019-01-23T00:39:44.708Z,41.00
2019-01-23T00:44:29.478Z,40.33
2019-01-23T00:49:17.216Z,37.40
2019-01-23T00:54:01.998Z,38.50
2019-01-23T00:58:49.286Z,37.37
2019-01-23T01:03:33.085Z,38.87
2019-01-23T01:08:17.654Z,36.77
2019-01-23T01:13:02.218Z,39.53
2019-01-23T01:17:46.758Z,37.97
2019-01-23T01:22:31.566Z,40.27
2019-01-23T01:27:16.181Z,46.67
2019-01-23T01:32:03.613Z,41.20
2019-01-23T01:36:48.182Z,45.70
2019-01-23T01:41:32.943Z,45.53
2019-01-23T01:46:17.563Z,50.37
2019-01-23T01:51:02.205Z,49.70
2019-01-23T01:55:46.919Z,50.70
2019-01-23T02:00:31.570Z,53.70
2019-01-23T02:05:16.687Z,56.03
2019-01-23T02:10:01.439Z,56.93
2019-01-23T02:14:46.024Z,60.23
2019-01-23T02:19:30.674Z,60.43
2019-01-23T02:24:15.191Z,59.23
2019-01-23T02:28:59.856Z,63.80
2019-01-23T02:33:47.322Z,65.13
2019-01-23T02:38:31.982Z,62.07
2019-01-23T02:43:16.734Z,60.70
2019-01-23T02:48:01.431Z,58.67
2019-01-23T02:52:46.089Z,56.23
2019-01-23T02:57:30.730Z,60.20
2019-01-23T03:02:15.408Z,72.83
2019-01-23T03:07:00.121Z,66.87
2019-01-23T03:11:44.892Z,62.33
2019-01-23T03:16:29.696Z,69.70
2019-01-23T03:21:14.359Z,61.60
2019-01-23T03:25:59.139Z,60.37
2019-01-23T03:30:43.741Z,64.37
2019-01-23T03:35:28.514Z,72.13
2019-01-23T03:40:15.482Z,64.13
2019-01-23T03:45:00.336Z,68.60
2019-01-23T03:49:44.938Z,72.27
2019-01-23T03:54:29.559Z,74.57
2019-01-23T03:59:14.273Z,76.77
2019-01-23T04:03:58.961Z,69.57
2019-01-23T04:08:43.782Z,71.17
2019-01-23T04:13:28.330Z,79.90
2019-01-23T04:18:12.914Z,68.73
2019-01-23T04:22:57.592Z,72.23
2019-01-23T04:27:42.302Z,68.93
2019-01-23T04:32:27.249Z,71.37
2019-01-23T04:37:12.029Z,77.87
2019-01-23T04:41:56.661Z,71.53
2019-01-23T04:46:41.212Z,70.70
2019-01-23T04:51:44.953Z,68.57
2019-01-23T04:56:29.544Z,64.20
2019-01-23T05:01:14.354Z,63.80
2019-01-23T05:05:59.236Z,65.07
2019-01-23T05:10:43.807Z,65.07
2019-01-23T05:15:28.725Z,58.70
2019-01-23T05:20:13.745Z,59.43
2019-01-23T05:24:58.371Z,60.17
2019-01-23T05:29:43.027Z,54.80
2019-01-23T05:34:27.802Z,63.93
2019-01-23T05:39:12.447Z,56.43
2019-01-23T05:43:57.045Z,55.47
2019-01-23T05:48:42.033Z,47.60
2019-01-23T05:53:26.685Z,51.57
2019-01-23T05:58:12.583Z,52.27
2019-01-23T06:02:57.207Z,48.87
2019-01-23T06:07:42.109Z,57.30
2019-01-23T06:12:27.109Z,61.70
2019-01-23T06:17:11.924Z,62.70
2019-01-23T06:21:59.561Z,52.63
2019-01-23T06:26:44.254Z,55.63
2019-01-23T06:31:29.101Z,56.97
2019-01-23T06:36:13.747Z,57.73
2019-01-23T06:40:58.433Z,52.00
2019-01-23T06:45:43.389Z,68.63
2019-01-23T06:50:28.192Z,81.40
2019-01-23T06:55:12.999Z,73.77
2019-01-23T06:59:57.833Z,79.40
2019-01-23T07:04:42.517Z,77.17
2019-01-23T07:09:27.299Z,60.10
2019-01-23T07:14:12.179Z,58.27
2019-01-23T07:18:56.917Z,60.73
2019-01-23T07:23:41.356Z,52.47
2019-01-23T07:28:28.672Z,60.07
2019-01-23T07:33:13.316Z,60.03
2019-01-23T07:37:58.035Z,58.60
2019-01-23T07:42:42.755Z,74.33
2019-01-23T07:47:27.471Z,51.73
2019-01-23T07:52:12.025Z,103.97
2019-01-23T07:56:59.555Z,66.97
2019-01-23T08:01:44.254Z,61.30
2019-01-23T08:06:29.010Z,55.37
2019-01-23T08:11:13.777Z,68.77
2019-01-23T08:16:00.937Z,62.60
2019-01-23T08:20:45.658Z,63.33
2019-01-23T08:25:30.359Z,190.30
2019-01-23T08:30:16.192Z,97.33
2019-01-23T08:35:03.281Z,92.10
2019-01-23T08:39:47.847Z,97.47
2019-01-23T08:44:32.468Z,78.13
2019-01-23T08:49:17.172Z,66.70
2019-01-23T08:54:01.711Z,65.17
2019-01-23T08:58:46.513Z,67.27
2019-01-23T09:03:31.241Z,64.23
2019-01-23T09:08:15.963Z,65.93
2019-01-23T09:13:00.771Z,66.37
2019-01-23T09:17:45.410Z,68.17
2019-01-23T09:22:30.067Z,62.57
2019-01-23T09:27:14.639Z,58.43
2019-01-23T09:32:30.856Z,61.47
2019-01-23T09:37:31.767Z,61.53
2019-01-23T09:42:57.317Z,69.83
2019-01-23T09:47:56.419Z,124.40
2019-01-23T09:53:32.445Z,65.97
2019-01-23T09:58:17.001Z,52.40
2019-01-23T10:03:01.834Z,51.20
2019-01-23T10:07:46.585Z,51.87
2019-01-23T10:12:31.277Z,61.37
2019-01-23T10:17:16.117Z,56.47
2019-01-23T10:22:00.806Z,71.93
2019-01-23T10:26:45.367Z,290.33
2019-01-23T10:31:30.011Z,50.33
2019-01-23T10:36:14.625Z,40.77
2019-01-23T10:40:59.165Z,38.43
2019-01-23T10:45:43.681Z,36.90
2019-01-23T10:50:28.245Z,62.10
2019-01-23T10:55:13.185Z,83.23
2019-01-23T10:59:57.748Z,43.03
2019-01-23T11:04:42.587Z,44.93
2019-01-23T11:09:27.503Z,41.87
2019-01-23T11:14:12.077Z,46.03
2019-01-23T11:18:56.947Z,126.00
2019-01-23T11:23:41.673Z,38.90
2019-01-23T11:28:26.357Z,38.67
2019-01-23T11:33:11.078Z,35.70
2019-01-23T11:37:55.581Z,30.83
2019-01-23T11:42:40.265Z,42.20
2019-01-23T11:47:24.798Z,36.10
2019-01-23T11:52:09.669Z,52.83
2019-01-23T11:56:54.470Z,44.33
2019-01-23T12:01:39.208Z,32.97
2019-01-23T12:06:23.851Z,33.77
2019-01-23T12:11:09.783Z,40.63
2019-01-23T12:15:54.431Z,39.07
2019-01-23T12:20:38.984Z,40.23
2019-01-23T12:25:23.501Z,37.73
2019-01-23T12:30:12.161Z,36.57
2019-01-23T12:34:56.761Z,41.43
2019-01-23T12:39:45.898Z,35.53
2019-01-23T12:44:30.416Z,40.17
2019-01-23T12:49:15.184Z,42.37
2019-01-23T12:53:59.967Z,37.67
2019-01-23T12:58:44.711Z,35.30
2019-01-23T13:03:29.403Z,39.93
2019-01-23T13:08:14.176Z,33.97
2019-01-23T13:12:59.164Z,31.73
2019-01-23T13:17:43.867Z,35.10
2019-01-23T13:22:28.455Z,30.87
2019-01-23T13:27:13.243Z,28.77
2019-01-23T13:31:57.848Z,28.43
2019-01-23T13:36:42.522Z,36.57
2019-01-23T13:41:27.108Z,87.50
2019-01-23T13:46:11.788Z,93.90
2019-01-23T13:50:56.448Z,98.13
2019-01-23T13:55:41.125Z,93.83
2019-01-23T14:00:28.971Z,92.07
2019-01-23T14:05:14.505Z,96.77
2019-01-23T14:09:59.211Z,134.23
2019-01-23T14:14:43.804Z,115.63
2019-01-23T14:19:28.461Z,104.90
2019-01-23T14:24:13.097Z,117.13
2019-01-23T14:28:57.850Z,121.83
2019-01-23T14:33:42.502Z,145.63
2019-01-23T14:38:27.235Z,131.57
2019-01-23T14:43:11.928Z,133.93
2019-01-23T14:47:56.799Z,121.83
2019-01-23T14:52:41.607Z,141.30
2019-01-23T14:57:26.278Z,122.37
2019-01-23T15:02:11.305Z,147.30
2019-01-23T15:06:55.875Z,140.60
2019-01-23T15:11:40.595Z,131.83
2019-01-23T15:16:25.328Z,123.57
2019-01-23T15:21:09.931Z,139.80
2019-01-23T15:25:54.700Z,134.17
2019-01-23T15:30:40.689Z,122.20
2019-01-23T15:35:25.495Z,127.63
2019-01-23T15:40:13.048Z,135.07
2019-01-23T15:44:57.834Z,139.03
2019-01-23T15:49:42.935Z,129.07
2019-01-23T15:54:27.649Z,138.70
2019-01-23T15:59:12.570Z,128.43
2019-01-23T16:03:58.534Z,132.93
2019-01-23T16:08:43.123Z,116.80
2019-01-23T16:13:27.751Z,118.00
2019-01-23T16:18:12.672Z,126.00
2019-01-23T16:22:58.059Z,120.57
2019-01-23T16:27:42.667Z,120.57
2019-01-23T16:32:31.492Z,105.93
2019-01-23T16:37:13.859Z,130.20
2019-01-23T16:41:58.531Z,121.13
2019-01-23T16:46:43.160Z,118.43
2019-01-23T16:51:27.766Z,119.03
2019-01-23T16:56:13.198Z,116.83
2019-01-23T17:00:57.791Z,125.77
2019-01-23T17:05:42.503Z,123.03
2019-01-23T17:10:27.505Z,123.27
2019-01-23T17:15:13.543Z,134.60
2019-01-23T17:19:59.216Z,120.90
2019-01-23T17:24:43.911Z,119.23
2019-01-23T17:29:30.719Z,124.00
2019-01-23T17:34:14.944Z,122.53
2019-01-23T17:38:59.793Z,117.90
2019-01-23T17:43:47.775Z,102.30
2019-01-23T17:48:32.669Z,106.13
2019-01-23T17:53:17.492Z,94.27
2019-01-23T17:58:02.479Z,90.20
2019-01-23T18:02:52.675Z,97.80
2019-01-23T18:07:33.650Z,89.13
2019-01-23T18:12:18.377Z,89.43
2019-01-23T18:17:03.146Z,87.13
2019-01-23T18:21:47.944Z,83.90
2019-01-23T18:26:37.556Z,79.53
2019-01-23T18:31:58.897Z,80.57
2019-01-23T18:37:21.187Z,80.47
2019-01-23T18:42:34.631Z,93.67
2019-01-23T18:48:13.694Z,100.50
2019-01-23T18:52:58.553Z,97.17
2019-01-23T18:57:43.291Z,80.77
2019-01-23T19:02:28.037Z,80.73
2019-01-23T19:07:12.983Z,73.93
2019-01-23T19:11:57.799Z,68.97
2019-01-23T19:16:42.528Z,79.60
2019-01-23T19:21:27.199Z,72.50
2019-01-23T19:26:11.874Z,63.07
2019-01-23T19:30:56.389Z,67.30
2019-01-23T19:35:41.084Z,69.27
2019-01-23T19:40:25.735Z,66.67
2019-01-23T19:45:14.679Z,66.33
2019-01-23T19:49:59.330Z,65.13
2019-01-23T19:54:43.919Z,60.60
2019-01-23T19:59:28.405Z,61.80
2019-01-23T20:04:12.979Z,61.97
2019-01-23T20:08:57.459Z,64.80
2019-01-23T20:13:42.362Z,112.73
2019-01-23T20:18:27.617Z,61.73
2019-01-23T20:23:12.274Z,75.43
2019-01-23T20:28:23.645Z,67.93
2019-01-23T20:39:10.661Z,105.13
2019-01-23T20:44:18.545Z,85.80
2019-01-23T20:50:01.718Z,92.17
2019-01-23T20:54:46.427Z,72.03
2019-01-23T20:59:45.364Z,71.00
2019-01-23T21:04:40.906Z,85.10
2019-01-23T21:09:25.443Z,74.20
2019-01-23T21:14:45.617Z,74.90
2019-01-23T21:19:46.561Z,70.93
2019-01-23T21:24:31.244Z,78.90
2019-01-23T21:29:20.364Z,132.87
2019-01-23T21:34:05.293Z,154.27
2019-01-23T21:38:49.912Z,141.27
2019-01-23T21:43:34.449Z,145.97
2019-01-23T21:48:19.539Z,140.80
2019-01-23T21:53:04.136Z,136.97
2019-01-23T21:57:48.879Z,126.03
2019-01-23T22:02:33.663Z,117.97
2019-01-23T22:07:18.247Z,115.93
2019-01-23T22:12:02.951Z,106.27
2019-01-23T22:16:47.588Z,111.70
2019-01-23T22:21:32.289Z,103.03
2019-01-23T22:26:17.147Z,115.67
2019-01-23T22:31:01.771Z,92.67
2019-01-23T22:35:46.551Z,94.33
2019-01-23T22:40:31.370Z,97.73
2019-01-23T22:45:17.681Z,98.83
2019-01-23T22:50:02.683Z,103.63
2019-01-23T22:54:47.354Z,94.40
2019-01-23T22:59:32.047Z,87.47
2019-01-23T23:04:16.855Z,101.77
2019-01-23T23:09:01.485Z,95.47
2019-01-23T23:13:46.387Z,92.30
2019-01-23T23:18:31.279Z,89.93
2019-01-23T23:23:15.869Z,97.30
2019-01-23T23:28:00.604Z,93.53
2019-01-23T23:32:45.281Z,83.10
2019-01-23T23:37:29.969Z,73.23
2019-01-23T23:42:14.831Z,96.50
2019-01-23T23:46:59.471Z,80.33
2019-01-23T23:51:44.132Z,83.87
2019-01-23T23:56:29.044Z,77.60
